createdAt,value
2022-12-06T00:00:30.864Z,98613.00
2022-12-06T00:02:59.391Z,98608.00
2022-12-06T00:05:40.665Z,98608.00
2022-12-06T00:08:11.386Z,98608.00
2022-12-06T00:10:48.946Z,98607.00
2022-12-06T00:13:33.130Z,98609.00
2022-12-06T00:16:07.330Z,98615.00
2022-12-06T00:18:39.472Z,98609.00
2022-12-06T00:21:12.271Z,98624.00
2022-12-06T00:24:08.702Z,98621.00
2022-12-06T00:26:45.845Z,98613.00
2022-12-06T00:29:16.957Z,98614.00
2022-12-06T00:31:52.289Z,98608.00
2022-12-06T00:34:24.390Z,98607.00
2022-12-06T00:36:54.260Z,98600.00
2022-12-06T00:39:22.455Z,98493.00
2022-12-06T00:41:50.883Z,98604.00
2022-12-06T00:44:21.652Z,98597.00
2022-12-06T00:46:52.445Z,98610.00
2022-12-06T00:49:23.461Z,98601.00
2022-12-06T00:51:56.419Z,98600.00
2022-12-06T00:54:24.950Z,98615.00
2022-12-06T00:56:57.450Z,98598.00
2022-12-06T00:59:31.847Z,98588.00
2022-12-06T01:02:03.316Z,98586.00
2022-12-06T01:04:31.542Z,98589.00
2022-12-06T01:07:01.500Z,98595.00
2022-12-06T01:09:46.885Z,98578.00
2022-12-06T01:12:17.276Z,98545.00
2022-12-06T01:14:47.194Z,98594.00
2022-12-06T01:17:17.813Z,98534.00
2022-12-06T01:19:53.381Z,98592.00
2022-12-06T01:22:27.014Z,98582.00
2022-12-06T01:25:00.690Z,98590.00
2022-12-06T01:27:32.926Z,98559.00
2022-12-06T01:30:01.263Z,98527.00
2022-12-06T01:32:34.134Z,98606.00
2022-12-06T01:35:07.604Z,98496.00
2022-12-06T01:37:40.069Z,98590.00
2022-12-06T01:40:14.564Z,98568.00
2022-12-06T01:45:24.246Z,98582.00
2022-12-06T01:47:52.702Z,98578.00
2022-12-06T01:50:27.711Z,98581.00
2022-12-06T01:53:20.230Z,98579.00
2022-12-06T01:55:56.817Z,98578.00
2022-12-06T01:58:28.486Z,98581.00
2022-12-06T02:01:00.971Z,98569.00
2022-12-06T02:03:33.146Z,98564.00
2022-12-06T02:06:01.622Z,98575.00
2022-12-06T02:08:35.820Z,98569.00
2022-12-06T02:11:04.172Z,98554.00
2022-12-06T02:13:32.530Z,98556.00
2022-12-06T02:16:05.893Z,98491.00
2022-12-06T02:18:36.339Z,98573.00
2022-12-06T02:21:11.008Z,98599.00
2022-12-06T02:24:15.968Z,98569.00
2022-12-06T02:26:44.790Z,98589.00
2022-12-06T02:29:30.277Z,98552.00
2022-12-06T02:32:00.505Z,98484.00
2022-12-06T02:34:31.839Z,98491.00
2022-12-06T02:37:02.144Z,98478.00
2022-12-06T02:39:32.147Z,98568.00
2022-12-06T02:42:01.597Z,98561.00
2022-12-06T02:44:32.965Z,98481.00
2022-12-06T02:47:02.702Z,98544.00
2022-12-06T02:49:32.805Z,98461.00
2022-12-06T02:52:01.017Z,98487.00
2022-12-06T02:54:29.238Z,98545.00
2022-12-06T02:56:57.486Z,98462.00
2022-12-06T02:59:25.718Z,98442.00
2022-12-06T03:01:55.552Z,98470.00
2022-12-06T03:04:46.399Z,98550.00
2022-12-06T03:07:33.633Z,98524.00
2022-12-06T03:10:22.221Z,98432.00
2022-12-06T03:12:54.613Z,98519.00
2022-12-06T03:15:34.352Z,98445.00
2022-12-06T03:18:04.377Z,98445.00
2022-12-06T03:20:43.137Z,98517.00
2022-12-06T03:23:21.643Z,98519.00
2022-12-06T03:26:15.544Z,98507.00
2022-12-06T03:28:43.877Z,98517.00
2022-12-06T03:31:12.896Z,98489.00
2022-12-06T03:33:42.618Z,98482.00
2022-12-06T03:36:15.212Z,98518.00
2022-12-06T03:38:46.712Z,98504.00
2022-12-06T03:41:15.000Z,98528.00
2022-12-06T03:43:43.257Z,98459.00
2022-12-06T03:46:13.831Z,98451.00
2022-12-06T03:48:43.086Z,98436.00
2022-12-06T03:51:12.140Z,98432.00
2022-12-06T03:53:47.487Z,98410.00
2022-12-06T03:56:15.823Z,98506.00
2022-12-06T03:58:44.068Z,98473.00
2022-12-06T04:01:12.282Z,98496.00
2022-12-06T04:03:40.530Z,98442.00
2022-12-06T04:06:11.554Z,98519.00
2022-12-06T04:08:39.881Z,98453.00
2022-12-06T04:11:09.445Z,98398.00
2022-12-06T04:13:37.618Z,98474.00
2022-12-06T04:16:27.181Z,98480.00
2022-12-06T04:18:54.475Z,98488.00
2022-12-06T04:21:40.315Z,98478.00
2022-12-06T04:24:08.562Z,98474.00
2022-12-06T04:26:38.154Z,98454.00
2022-12-06T04:29:23.670Z,98460.00
2022-12-06T04:32:08.943Z,98448.00
2022-12-06T04:34:54.396Z,98454.00
2022-12-06T04:37:39.758Z,98465.00
2022-12-06T04:40:09.335Z,98435.00
2022-12-06T04:43:03.438Z,98448.00
2022-12-06T04:45:31.575Z,98456.00
2022-12-06T04:47:59.752Z,98416.00
2022-12-06T04:50:28.035Z,98499.00
2022-12-06T04:52:58.297Z,98466.00
2022-12-06T04:55:26.571Z,98467.00
2022-12-06T04:58:15.980Z,98445.00
2022-12-06T05:01:08.697Z,98444.00
2022-12-06T05:03:43.908Z,98444.00
2022-12-06T05:06:21.469Z,98422.00
2022-12-06T05:08:50.615Z,98446.00
2022-12-06T05:11:18.878Z,98435.00
2022-12-06T05:13:54.302Z,98392.00
2022-12-06T05:16:22.618Z,98436.00
2022-12-06T05:18:50.873Z,98348.00
2022-12-06T05:21:21.579Z,98350.00
2022-12-06T05:23:54.067Z,98424.00
2022-12-06T05:26:23.372Z,98381.00
2022-12-06T05:28:51.605Z,98354.00
2022-12-06T05:31:21.301Z,98345.00
2022-12-06T05:33:50.100Z,98380.00
2022-12-06T05:36:20.346Z,98373.00
2022-12-06T05:38:51.552Z,98330.00
2022-12-06T05:41:20.291Z,98475.00
2022-12-06T05:43:48.528Z,98374.00
2022-12-06T05:46:17.576Z,98483.00
2022-12-06T05:48:48.008Z,98356.00
2022-12-06T05:51:18.706Z,98455.00
2022-12-06T05:54:10.458Z,98437.00
2022-12-06T05:56:41.373Z,98413.00
2022-12-06T05:59:13.565Z,98456.00
2022-12-06T06:01:47.722Z,98371.00
2022-12-06T06:04:18.325Z,98453.00
2022-12-06T06:06:59.533Z,98387.00
2022-12-06T06:09:28.266Z,98331.00
2022-12-06T06:11:56.838Z,98394.00
2022-12-06T06:14:28.608Z,98432.00
2022-12-06T06:16:59.456Z,98442.00
2022-12-06T06:19:34.570Z,98323.00
2022-12-06T06:22:02.799Z,98398.00
2022-12-06T06:24:38.227Z,98416.00
2022-12-06T06:27:12.699Z,98423.00
2022-12-06T06:29:45.280Z,98459.00
2022-12-06T06:32:13.963Z,98387.00
2022-12-06T06:34:43.627Z,98350.00
2022-12-06T06:37:16.599Z,98428.00
2022-12-06T06:39:45.155Z,98367.00
2022-12-06T06:42:13.465Z,98417.00
2022-12-06T06:44:42.683Z,98414.00
2022-12-06T06:47:16.536Z,98413.00
2022-12-06T06:49:49.156Z,98419.00
2022-12-06T06:52:18.246Z,98462.00
2022-12-06T06:54:52.886Z,98368.00
2022-12-06T06:57:23.657Z,98362.00
2022-12-06T06:59:51.904Z,98444.00
2022-12-06T07:02:20.316Z,98360.00
2022-12-06T07:04:50.433Z,98393.00
2022-12-06T07:07:21.211Z,98437.00
2022-12-06T07:09:53.139Z,98353.00
2022-12-06T07:12:21.741Z,98442.00
2022-12-06T07:14:51.606Z,98458.00
2022-12-06T07:17:24.731Z,98431.00
2022-12-06T07:19:54.568Z,98370.00
2022-12-06T07:22:22.895Z,98435.00
2022-12-06T07:24:53.831Z,98373.00
2022-12-06T07:27:25.032Z,98424.00
2022-12-06T07:29:56.204Z,98369.00
2022-12-06T07:32:27.680Z,98421.00
2022-12-06T07:34:57.373Z,98462.00
2022-12-06T07:37:25.719Z,98359.00
2022-12-06T07:39:59.378Z,98391.00
2022-12-06T07:42:45.381Z,98444.00
2022-12-06T07:45:15.676Z,98440.00
2022-12-06T07:47:44.761Z,98445.00
2022-12-06T07:50:18.697Z,98418.00
2022-12-06T07:52:47.249Z,98442.00
2022-12-06T07:55:15.673Z,98387.00
2022-12-06T07:57:46.992Z,98400.00
2022-12-06T08:00:16.148Z,98367.00
2022-12-06T08:02:48.931Z,98364.00
2022-12-06T08:05:21.247Z,98417.00
2022-12-06T08:07:53.929Z,98386.00
2022-12-06T08:10:24.839Z,98399.00
2022-12-06T08:12:55.824Z,98435.00
2022-12-06T08:15:26.015Z,98359.00
2022-12-06T08:17:54.352Z,98419.00
2022-12-06T08:20:24.253Z,98362.00
2022-12-06T08:22:52.785Z,98409.00
2022-12-06T08:25:24.305Z,98444.00
2022-12-06T08:27:53.024Z,98366.00
2022-12-06T08:30:21.783Z,98421.00
2022-12-06T08:32:57.157Z,98400.00
2022-12-06T08:35:29.567Z,98422.00
2022-12-06T08:38:00.882Z,98396.00
2022-12-06T08:40:29.295Z,98436.00
2022-12-06T08:42:57.736Z,98449.00
2022-12-06T08:45:25.919Z,98439.00
2022-12-06T08:47:54.335Z,98387.00
2022-12-06T08:50:24.701Z,98449.00
2022-12-06T08:53:00.850Z,98444.00
2022-12-06T08:55:31.840Z,98457.00
2022-12-06T08:58:05.097Z,98456.00
2022-12-06T09:00:35.361Z,98456.00
2022-12-06T09:03:06.257Z,98455.00
2022-12-06T09:05:40.748Z,98465.00
2022-12-06T09:08:10.392Z,98456.00
2022-12-06T09:10:45.383Z,98465.00
2022-12-06T09:13:16.234Z,98458.00
2022-12-06T09:15:44.368Z,98458.00
2022-12-06T09:18:14.721Z,98461.00
2022-12-06T09:20:43.022Z,98465.00
2022-12-06T09:23:12.723Z,98456.00
2022-12-06T09:25:44.872Z,98456.00
2022-12-06T09:28:13.041Z,98460.00
2022-12-06T09:30:41.249Z,98463.00
2022-12-06T09:33:09.591Z,98468.00
2022-12-06T09:35:37.656Z,98463.00
2022-12-06T09:38:08.242Z,98472.00
2022-12-06T09:40:56.181Z,98460.00
2022-12-06T09:43:36.465Z,98456.00
2022-12-06T09:46:18.831Z,98434.00
2022-12-06T09:48:57.623Z,98349.00
2022-12-06T09:51:32.823Z,98451.00
2022-12-06T09:54:12.420Z,98455.00
2022-12-06T09:56:44.839Z,98458.00
2022-12-06T09:59:17.944Z,98458.00
2022-12-06T10:01:56.118Z,98454.00
2022-12-06T10:04:35.978Z,98448.00
2022-12-06T10:07:10.070Z,98444.00
2022-12-06T10:09:42.895Z,98444.00
2022-12-06T10:12:17.671Z,98437.00
2022-12-06T10:14:57.669Z,98443.00
2022-12-06T10:17:31.606Z,98443.00
2022-12-06T10:20:05.434Z,98444.00
2022-12-06T10:22:40.398Z,98433.00
2022-12-06T10:25:12.487Z,98440.00
2022-12-06T10:27:48.447Z,98439.00
2022-12-06T10:30:20.786Z,98444.00
2022-12-06T10:32:57.621Z,98439.00
2022-12-06T10:35:35.385Z,98445.00
2022-12-06T10:38:10.619Z,98431.00
2022-12-06T10:40:44.642Z,98432.00
2022-12-06T10:43:18.460Z,98439.00
2022-12-06T10:46:15.582Z,98434.00
2022-12-06T10:48:49.903Z,98446.00
2022-12-06T10:51:23.078Z,98446.00
2022-12-06T10:53:54.163Z,98445.00
2022-12-06T10:56:24.240Z,98451.00
2022-12-06T10:58:55.258Z,98441.00
2022-12-06T11:01:26.876Z,98435.00
2022-12-06T11:04:02.649Z,98451.00
2022-12-06T11:06:33.348Z,98431.00
2022-12-06T11:09:05.707Z,98438.00
2022-12-06T11:11:37.019Z,98445.00
2022-12-06T11:14:12.493Z,98453.00
2022-12-06T11:16:42.243Z,98433.00
2022-12-06T11:19:20.547Z,98433.00
2022-12-06T11:21:54.859Z,98430.00
2022-12-06T11:24:24.209Z,98428.00
2022-12-06T11:26:58.830Z,98446.00
2022-12-06T11:29:33.293Z,98425.00
2022-12-06T11:32:04.515Z,98427.00
2022-12-06T11:34:34.318Z,98422.00
2022-12-06T11:37:06.202Z,98428.00
2022-12-06T11:39:36.921Z,98438.00
2022-12-06T11:42:05.630Z,98425.00
2022-12-06T11:44:49.713Z,98429.00
2022-12-06T11:47:21.614Z,98414.00
2022-12-06T11:49:52.781Z,98422.00
2022-12-06T11:52:25.834Z,98425.00
2022-12-06T11:54:57.888Z,98415.00
2022-12-06T11:57:30.235Z,98417.00
2022-12-06T12:00:24.277Z,98423.00
2022-12-06T12:02:56.096Z,98421.00
2022-12-06T12:05:27.333Z,98404.00
2022-12-06T12:08:00.160Z,98402.00
2022-12-06T12:10:35.023Z,98401.00
2022-12-06T12:13:36.184Z,98404.00
2022-12-06T12:16:16.229Z,98418.00
2022-12-06T12:18:52.857Z,98414.00
2022-12-06T12:21:42.239Z,98408.00
2022-12-06T12:27:49.629Z,98410.00
2022-12-06T12:30:22.969Z,98398.00
2022-12-06T12:33:09.774Z,98403.00
2022-12-06T12:35:38.662Z,98403.00
2022-12-06T12:38:16.181Z,98397.00
2022-12-06T12:40:48.626Z,98406.00
2022-12-06T12:43:20.733Z,98404.00
2022-12-06T12:46:17.556Z,98401.00
2022-12-06T12:48:51.181Z,98404.00
2022-12-06T12:51:26.269Z,98404.00
2022-12-06T12:53:58.776Z,98391.00
2022-12-06T12:56:29.881Z,98404.00
2022-12-06T12:58:58.666Z,98397.00
2022-12-06T13:01:53.539Z,98399.00
2022-12-06T13:04:43.133Z,98392.00
2022-12-06T13:07:22.870Z,98399.00
2022-12-06T13:09:57.665Z,98406.00
2022-12-06T13:12:36.229Z,98411.00
2022-12-06T13:15:06.717Z,98399.00
2022-12-06T13:17:38.913Z,98402.00
2022-12-06T13:20:21.109Z,98384.00
2022-12-06T13:22:53.012Z,98410.00
2022-12-06T13:25:24.014Z,98404.00
2022-12-06T13:27:54.071Z,98406.00
2022-12-06T13:30:23.301Z,98411.00
2022-12-06T13:32:52.814Z,98406.00
2022-12-06T13:35:31.221Z,98415.00
2022-12-06T13:38:26.340Z,98404.00
2022-12-06T13:40:58.388Z,98404.00
2022-12-06T13:43:50.746Z,98412.00
2022-12-06T13:46:28.464Z,98407.00
2022-12-06T13:48:57.234Z,98407.00
2022-12-06T13:51:52.479Z,98409.00
2022-12-06T13:54:30.819Z,98407.00
2022-12-06T13:57:01.717Z,98403.00
2022-12-06T13:59:37.872Z,98415.00
2022-12-06T14:02:50.854Z,98408.00
2022-12-06T14:08:28.957Z,98410.00
2022-12-06T14:14:08.921Z,98365.00
2022-12-06T14:16:37.932Z,98335.00
2022-12-06T14:19:16.123Z,98349.00
2022-12-06T14:21:45.927Z,98307.00
2022-12-06T14:24:32.557Z,98410.00
2022-12-06T14:27:08.032Z,98383.00
2022-12-06T14:29:36.629Z,98385.00
2022-12-06T14:32:05.336Z,98372.00
2022-12-06T14:34:34.756Z,98378.00
2022-12-06T14:37:13.493Z,98406.00
2022-12-06T14:39:43.137Z,98326.00
2022-12-06T14:42:36.051Z,98351.00
2022-12-06T14:45:04.769Z,98336.00
2022-12-06T14:47:33.131Z,98408.00
2022-12-06T14:50:18.970Z,98420.00
2022-12-06T14:52:57.175Z,98428.00
2022-12-06T14:55:27.476Z,98409.00
2022-12-06T14:57:57.362Z,98379.00
2022-12-06T15:00:28.130Z,98374.00
2022-12-06T15:03:01.078Z,98387.00
2022-12-06T15:05:36.182Z,98415.00
2022-12-06T15:08:33.532Z,98412.00
2022-12-06T15:11:03.993Z,98397.00
2022-12-06T15:13:31.207Z,98408.00
2022-12-06T15:16:13.101Z,98407.00
2022-12-06T15:18:42.413Z,98410.00
2022-12-06T15:21:14.259Z,98387.00
2022-12-06T15:23:48.660Z,98401.00
2022-12-06T15:26:21.085Z,98431.00
2022-12-06T15:28:49.329Z,98372.00
2022-12-06T15:31:18.994Z,98358.00
2022-12-06T15:33:47.326Z,98433.00
2022-12-06T15:36:18.224Z,98410.00
2022-12-06T15:38:46.480Z,98401.00
2022-12-06T15:41:16.221Z,98429.00
2022-12-06T15:43:45.686Z,98372.00
2022-12-06T15:46:18.073Z,98375.00
2022-12-06T15:48:46.391Z,98405.00
2022-12-06T15:51:20.339Z,98388.00
2022-12-06T15:53:49.662Z,98392.00
2022-12-06T15:56:18.905Z,98389.00
2022-12-06T15:58:49.827Z,98408.00
2022-12-06T16:01:19.213Z,98430.00
2022-12-06T16:03:47.541Z,98324.00
2022-12-06T16:06:33.674Z,98431.00
2022-12-06T16:09:24.636Z,98433.00
2022-12-06T16:19:13.909Z,98441.00
2022-12-06T16:22:30.017Z,98398.00
2022-12-06T17:16:44.952Z,98362.00
2022-12-06T18:30:29.532Z,98373.00
2022-12-06T18:33:39.288Z,98415.00
2022-12-06T18:36:56.956Z,98366.00
2022-12-06T18:40:23.195Z,98384.00
2022-12-06T18:56:32.592Z,98431.00
2022-12-06T19:06:03.494Z,98435.00
2022-12-06T19:24:56.130Z,98400.00
2022-12-06T19:27:25.480Z,98406.00
2022-12-06T19:29:54.073Z,98423.00
2022-12-06T19:32:24.560Z,98416.00
2022-12-06T19:34:56.908Z,98370.00
2022-12-06T19:37:34.346Z,98390.00
2022-12-06T19:40:04.851Z,98372.00
2022-12-06T19:42:50.354Z,98419.00
2022-12-06T19:45:19.139Z,98412.00
2022-12-06T19:47:50.474Z,98430.00
2022-12-06T19:50:18.596Z,98432.00
2022-12-06T19:52:47.598Z,98399.00
2022-12-06T19:55:17.358Z,98404.00
2022-12-06T19:57:46.292Z,98432.00
2022-12-06T20:00:21.089Z,98435.00
2022-12-06T20:02:51.038Z,98398.00
2022-12-06T20:05:20.611Z,98449.00
2022-12-06T20:07:49.112Z,98432.00
2022-12-06T20:10:19.986Z,98437.00
